createdAt,value
2022-11-28T00:01:19.572Z,6.10
2022-11-28T00:03:48.331Z,6.10
2022-11-28T00:06:17.477Z,6.10
2022-11-28T00:08:44.273Z,6.10
2022-11-28T00:11:11.716Z,6.10
2022-11-28T00:13:38.376Z,6.10
2022-11-28T00:16:08.391Z,6.20
2022-11-28T00:18:35.041Z,6.10
2022-11-28T00:21:04.755Z,6.10
2022-11-28T00:23:31.860Z,6.10
2022-11-28T00:25:59.152Z,6.00
2022-11-28T00:28:27.881Z,5.90
2022-11-28T00:30:54.404Z,5.90
2022-11-28T00:33:20.943Z,5.90
2022-11-28T00:35:49.666Z,5.90
2022-11-28T00:38:16.234Z,5.90
2022-11-28T00:40:45.259Z,5.90
2022-11-28T00:43:12.851Z,5.80
2022-11-28T00:45:39.492Z,5.80
2022-11-28T00:48:06.263Z,5.70
2022-11-28T00:50:32.917Z,5.60
2022-11-28T00:53:02.888Z,5.50
2022-11-28T00:55:29.455Z,5.50
2022-11-28T00:57:56.102Z,5.50
2022-11-28T01:00:25.026Z,5.40
2022-11-28T01:02:52.131Z,5.40
2022-11-28T01:05:18.647Z,5.30
2022-11-28T01:07:47.700Z,5.30
2022-11-28T01:10:16.744Z,5.30
2022-11-28T01:12:46.538Z,5.30
2022-11-28T01:15:13.573Z,5.20
2022-11-28T01:17:40.101Z,5.10
2022-11-28T01:20:08.003Z,5.10
2022-11-28T01:22:34.574Z,5.20
2022-11-28T01:25:03.673Z,5.30
2022-11-28T01:27:30.255Z,5.30
2022-11-28T01:29:56.779Z,5.40
2022-11-28T01:32:23.299Z,5.30
2022-11-28T01:34:49.864Z,5.20
2022-11-28T01:37:16.410Z,5.10
2022-11-28T01:39:45.367Z,5.00
2022-11-28T01:42:16.267Z,5.10
2022-11-28T01:44:42.938Z,5.10
2022-11-28T01:47:09.847Z,5.00
2022-11-28T01:49:37.479Z,5.00
2022-11-28T01:52:05.789Z,5.00
2022-11-28T01:54:33.100Z,5.00
2022-11-28T01:57:04.454Z,5.00
2022-11-28T01:59:33.641Z,4.90
2022-11-28T02:02:02.640Z,4.90
2022-11-28T02:04:29.375Z,4.80
2022-11-28T02:06:56.024Z,4.90
2022-11-28T02:09:22.662Z,4.90
2022-11-28T02:11:52.271Z,4.90
2022-11-28T02:14:40.264Z,4.90
2022-11-28T02:17:25.958Z,4.80
2022-11-28T02:19:55.297Z,4.90
2022-11-28T02:22:29.040Z,4.90
2022-11-28T02:25:04.849Z,4.90
2022-11-28T02:27:49.443Z,4.80
2022-11-28T02:30:19.401Z,4.90
2022-11-28T02:32:52.728Z,5.00
2022-11-28T02:35:26.512Z,5.00
2022-11-28T02:37:59.257Z,5.10
2022-11-28T02:40:25.779Z,5.00
2022-11-28T02:43:10.516Z,5.00
2022-11-28T02:45:46.129Z,5.00
2022-11-28T02:48:19.826Z,5.00
2022-11-28T02:51:02.329Z,5.10
2022-11-28T02:53:30.373Z,5.00
2022-11-28T02:55:57.464Z,5.10
2022-11-28T02:58:26.519Z,5.10
2022-11-28T03:00:53.309Z,5.10
2022-11-28T03:03:38.418Z,5.10
2022-11-28T03:06:23.891Z,5.10
2022-11-28T03:08:59.425Z,5.10
2022-11-28T03:11:38.196Z,5.10
2022-11-28T03:14:22.443Z,5.10
2022-11-28T03:16:56.784Z,5.10
2022-11-28T03:19:27.488Z,5.20
2022-11-28T03:22:17.652Z,5.20
2022-11-28T03:24:47.996Z,5.30
2022-11-28T03:27:17.997Z,5.30
2022-11-28T03:29:49.951Z,5.30
2022-11-28T03:32:36.570Z,5.40
2022-11-28T03:35:05.961Z,5.40
2022-11-28T03:37:40.393Z,5.40
2022-11-28T03:40:09.240Z,5.40
2022-11-28T03:42:38.086Z,5.40
2022-11-28T03:45:09.712Z,5.40
2022-11-28T03:47:42.128Z,5.30
2022-11-28T03:50:11.369Z,5.40
2022-11-28T03:52:43.842Z,5.40
2022-11-28T03:55:19.253Z,5.30
2022-11-28T03:57:58.541Z,5.30
2022-11-28T04:00:25.663Z,5.20
2022-11-28T04:02:55.400Z,5.20
2022-11-28T04:05:43.474Z,5.20
2022-11-28T04:08:23.060Z,5.30
2022-11-28T04:10:56.499Z,5.30
2022-11-28T04:13:28.912Z,5.30
2022-11-28T04:16:19.276Z,5.30
2022-11-28T04:18:52.476Z,5.20
2022-11-28T04:21:34.050Z,5.20
2022-11-28T04:24:03.738Z,5.20
2022-11-28T04:26:33.003Z,5.20
2022-11-28T04:29:01.733Z,5.20
2022-11-28T04:31:28.587Z,5.20
2022-11-28T04:34:00.133Z,5.20
2022-11-28T04:36:27.056Z,5.20
2022-11-28T04:38:57.341Z,5.10
2022-11-28T04:41:32.797Z,5.10
2022-11-28T04:44:10.667Z,5.20
2022-11-28T04:46:43.111Z,5.20
2022-11-28T04:49:12.367Z,5.20
2022-11-28T04:51:38.965Z,5.20
2022-11-28T04:54:18.588Z,5.20
2022-11-28T04:57:14.325Z,5.20
2022-11-28T04:59:41.961Z,5.10
2022-11-28T05:02:08.698Z,5.10
2022-11-28T05:04:36.707Z,5.00
2022-11-28T05:07:04.811Z,5.00
2022-11-28T05:09:31.578Z,5.00
2022-11-28T05:11:58.600Z,5.00
2022-11-28T05:14:25.215Z,5.00
2022-11-28T05:16:52.162Z,4.90
2022-11-28T05:19:19.082Z,5.00
2022-11-28T05:21:48.045Z,5.00
2022-11-28T05:24:14.626Z,5.00
2022-11-28T05:26:43.310Z,5.00
2022-11-28T05:29:09.867Z,5.00
2022-11-28T05:31:37.199Z,5.00
2022-11-28T05:34:06.153Z,5.00
2022-11-28T05:36:37.236Z,5.00
2022-11-28T05:39:03.907Z,4.90
2022-11-28T05:41:31.355Z,4.90
2022-11-28T05:43:58.428Z,5.00
2022-11-28T05:46:25.542Z,5.00
2022-11-28T05:48:52.230Z,5.10
2022-11-28T05:51:21.050Z,5.10
2022-11-28T05:53:47.626Z,5.10
2022-11-28T05:56:20.567Z,5.10
2022-11-28T05:58:47.105Z,5.10
2022-11-28T06:01:18.344Z,5.00
2022-11-28T06:03:45.491Z,5.00
2022-11-28T06:06:15.270Z,4.90
2022-11-28T06:08:44.460Z,5.00
2022-11-28T06:11:11.958Z,5.00
2022-11-28T06:13:41.066Z,5.10
2022-11-28T06:16:11.517Z,5.10
2022-11-28T06:18:38.433Z,5.10
2022-11-28T06:21:05.568Z,5.00
2022-11-28T06:23:32.133Z,5.00
2022-11-28T06:25:58.758Z,4.90
2022-11-28T06:28:25.320Z,5.00
2022-11-28T06:30:51.927Z,5.00
2022-11-28T06:33:20.962Z,4.90
2022-11-28T06:35:47.538Z,4.90
2022-11-28T06:38:14.615Z,4.90
2022-11-28T06:40:41.257Z,4.90
2022-11-28T06:43:07.763Z,4.90
2022-11-28T06:45:36.551Z,4.90
2022-11-28T06:48:04.167Z,4.80
2022-11-28T06:50:31.944Z,4.80
2022-11-28T06:52:58.527Z,4.80
2022-11-28T06:55:27.365Z,4.80
2022-11-28T06:57:56.304Z,4.90
2022-11-28T07:00:23.123Z,4.90
2022-11-28T07:02:49.731Z,4.90
2022-11-28T07:05:19.287Z,4.90
2022-11-28T07:07:54.265Z,4.80
2022-11-28T07:10:21.641Z,4.90
2022-11-28T07:12:52.628Z,4.90
2022-11-28T07:15:19.327Z,4.80
2022-11-28T07:17:45.845Z,4.90
2022-11-28T07:20:12.584Z,4.90
2022-11-28T07:22:39.142Z,5.00
2022-11-28T07:25:08.305Z,5.00
2022-11-28T07:27:34.829Z,5.00
2022-11-28T07:30:01.481Z,5.10
2022-11-28T07:32:28.057Z,5.10
2022-11-28T07:34:54.588Z,5.10
2022-11-28T07:37:21.150Z,5.10
2022-11-28T07:39:47.670Z,5.10
2022-11-28T07:42:16.829Z,5.10
2022-11-28T07:44:43.376Z,5.10
2022-11-28T07:47:09.924Z,5.10
2022-11-28T07:49:36.442Z,5.20
2022-11-28T07:52:03.036Z,5.10
2022-11-28T07:54:31.958Z,5.10
2022-11-28T07:57:12.301Z,5.10
2022-11-28T07:59:39.898Z,5.10
2022-11-28T08:02:06.788Z,5.10
2022-11-28T08:04:33.380Z,5.10
2022-11-28T08:07:02.158Z,5.20
2022-11-28T08:09:28.887Z,5.20
2022-11-28T08:11:55.459Z,5.20
2022-11-28T08:14:24.607Z,5.20
2022-11-28T08:16:51.436Z,5.20
2022-11-28T08:19:22.963Z,5.20
2022-11-28T08:21:51.465Z,5.30
2022-11-28T08:24:18.012Z,5.30
2022-11-28T08:26:46.914Z,5.30
2022-11-28T08:29:15.921Z,5.30
2022-11-28T08:31:44.714Z,5.30
2022-11-28T08:34:13.798Z,5.30
2022-11-28T08:36:43.354Z,5.30
2022-11-28T08:39:26.802Z,5.40
2022-11-28T08:41:56.962Z,5.40
2022-11-28T08:44:23.525Z,5.40
2022-11-28T08:46:50.225Z,5.30
2022-11-28T08:49:19.263Z,5.30
2022-11-28T08:51:46.108Z,5.40
2022-11-28T08:54:12.659Z,5.30
2022-11-28T08:56:41.468Z,5.30
2022-11-28T08:59:08.078Z,5.30
2022-11-28T09:01:36.891Z,5.40
2022-11-28T09:04:05.912Z,5.40
2022-11-28T09:06:32.659Z,5.40
2022-11-28T09:08:59.203Z,5.40
2022-11-28T09:11:26.034Z,5.40
2022-11-28T09:13:52.576Z,5.50
2022-11-28T09:16:19.372Z,5.50
2022-11-28T09:18:48.114Z,5.50
2022-11-28T09:21:17.093Z,5.50
2022-11-28T09:23:44.436Z,5.50
2022-11-28T09:26:13.978Z,5.50
2022-11-28T09:28:40.514Z,5.60
2022-11-28T09:31:07.642Z,5.60
2022-11-28T09:33:35.052Z,5.60
2022-11-28T09:36:10.200Z,5.70
2022-11-28T09:38:37.204Z,5.70
2022-11-28T09:41:04.319Z,5.70
2022-11-28T09:43:33.967Z,5.80
2022-11-28T09:46:04.627Z,5.80
2022-11-28T09:48:36.257Z,5.80
2022-11-28T09:51:25.849Z,5.90
2022-11-28T09:53:57.913Z,5.90
2022-11-28T09:56:24.535Z,5.90
2022-11-28T09:58:55.754Z,6.00
2022-11-28T10:01:34.268Z,6.00
2022-11-28T10:04:09.969Z,6.10
2022-11-28T10:06:48.484Z,6.10
2022-11-28T10:09:33.815Z,6.10
2022-11-28T10:12:20.656Z,6.10
2022-11-28T10:15:05.324Z,6.10
2022-11-28T10:17:40.804Z,6.20
2022-11-28T10:20:27.284Z,6.20
2022-11-28T10:23:16.899Z,6.20
2022-11-28T10:25:48.752Z,6.20
2022-11-28T10:28:18.308Z,6.20
2022-11-28T10:30:51.443Z,6.20
2022-11-28T10:33:33.662Z,6.20
2022-11-28T10:36:01.923Z,6.20
2022-11-28T10:38:29.947Z,6.30
2022-11-28T10:41:05.893Z,6.30
2022-11-28T10:43:38.118Z,6.30
2022-11-28T10:46:06.928Z,6.40
2022-11-28T10:48:40.457Z,6.40
2022-11-28T10:51:10.635Z,6.40
2022-11-28T10:53:37.166Z,6.40
2022-11-28T10:56:11.290Z,6.40
2022-11-28T10:58:56.943Z,6.40
2022-11-28T11:01:24.127Z,6.40
2022-11-28T11:03:50.805Z,6.50
2022-11-28T11:06:17.373Z,6.40
2022-11-28T11:08:47.260Z,6.40
2022-11-28T11:11:19.332Z,6.40
2022-11-28T11:14:02.553Z,6.40
2022-11-28T11:16:55.820Z,6.40
2022-11-28T11:19:26.093Z,6.50
2022-11-28T11:22:03.875Z,6.50
2022-11-28T11:24:32.855Z,6.50
2022-11-28T11:27:04.377Z,6.60
2022-11-28T11:29:37.409Z,6.50
2022-11-28T11:32:06.324Z,6.50
2022-11-28T11:34:38.401Z,6.50
2022-11-28T11:37:18.864Z,6.40
2022-11-28T11:39:52.115Z,6.40
2022-11-28T11:42:23.532Z,6.40
2022-11-28T11:44:55.023Z,6.40
2022-11-28T11:47:42.396Z,6.30
2022-11-28T11:50:20.125Z,6.40
2022-11-28T11:53:05.639Z,6.40
2022-11-28T11:55:46.117Z,6.40
2022-11-28T11:58:14.243Z,6.40
2022-11-28T12:00:41.284Z,6.40
2022-11-28T12:03:15.018Z,6.40
2022-11-28T12:05:59.364Z,6.30
2022-11-28T12:08:46.516Z,6.30
2022-11-28T12:11:27.675Z,6.30
2022-11-28T12:13:57.365Z,6.30
2022-11-28T12:16:43.938Z,6.30
2022-11-28T12:19:23.466Z,6.40
2022-11-28T12:21:49.971Z,6.40
2022-11-28T12:24:21.764Z,6.50
2022-11-28T12:26:50.712Z,6.50
2022-11-28T12:29:32.016Z,6.60
2022-11-28T12:32:19.373Z,6.60
2022-11-28T12:35:04.680Z,6.60
2022-11-28T12:38:08.993Z,6.60
2022-11-28T12:40:40.252Z,6.60
2022-11-28T12:43:25.693Z,6.50
2022-11-28T12:46:04.954Z,6.50
2022-11-28T12:48:53.272Z,6.50
2022-11-28T12:51:30.836Z,6.50
2022-11-28T12:54:00.256Z,6.50
2022-11-28T12:56:42.303Z,6.50
2022-11-28T12:59:29.114Z,6.50
2022-11-28T13:02:05.171Z,6.50
2022-11-28T13:04:44.391Z,6.50
2022-11-28T13:07:17.087Z,6.60
2022-11-28T13:09:53.259Z,6.60
2022-11-28T13:12:25.603Z,6.60
2022-11-28T13:14:52.583Z,6.60
2022-11-28T13:17:24.882Z,6.50
2022-11-28T13:20:03.787Z,6.60
2022-11-28T13:22:46.629Z,6.60
2022-11-28T13:25:13.215Z,6.60
2022-11-28T13:27:53.352Z,6.60
2022-11-28T13:30:24.447Z,6.60
2022-11-28T13:32:56.601Z,6.60
2022-11-28T13:35:23.656Z,6.60
2022-11-28T13:40:53.546Z,6.60
2022-11-28T13:43:20.102Z,6.60
2022-11-28T13:45:47.265Z,6.60
2022-11-28T13:48:57.529Z,6.60
2022-11-28T13:51:30.243Z,6.60
2022-11-28T13:54:16.940Z,6.70
2022-11-28T13:56:45.337Z,6.70
2022-11-28T13:59:17.942Z,6.70
2022-11-28T14:01:45.981Z,6.70
2022-11-28T14:04:18.792Z,6.70
2022-11-28T14:06:52.182Z,6.70
2022-11-28T14:09:44.572Z,6.80
2022-11-28T14:12:25.669Z,6.70
2022-11-28T14:14:58.012Z,6.80
2022-11-28T14:17:43.257Z,6.80
2022-11-28T14:20:18.284Z,6.90
2022-11-28T14:22:44.819Z,6.90
2022-11-28T14:25:16.725Z,6.90
2022-11-28T14:27:48.572Z,6.90
2022-11-28T14:30:35.102Z,6.90
2022-11-28T14:33:06.574Z,6.90
2022-11-28T14:35:52.177Z,6.90
2022-11-28T14:38:30.833Z,6.90
2022-11-28T14:40:57.490Z,6.90
2022-11-28T14:43:26.491Z,6.90
2022-11-28T14:46:15.436Z,6.90
2022-11-28T14:49:02.576Z,6.90
2022-11-28T14:51:47.443Z,6.90
2022-11-28T14:54:22.053Z,6.90
2022-11-28T14:56:49.621Z,6.90
2022-11-28T14:59:18.972Z,6.90
2022-11-28T15:01:48.357Z,6.90
2022-11-28T15:04:14.928Z,6.90
2022-11-28T15:06:41.988Z,6.90
2022-11-28T15:09:21.573Z,6.90
2022-11-28T15:12:03.405Z,6.90
2022-11-28T15:14:31.914Z,7.00
2022-11-28T15:17:01.616Z,7.00
2022-11-28T15:19:39.090Z,7.00
2022-11-28T15:22:08.714Z,7.00
2022-11-28T15:24:36.465Z,6.90
2022-11-28T15:27:08.891Z,6.90
2022-11-28T15:29:36.101Z,6.90
2022-11-28T15:32:02.867Z,6.90
2022-11-28T15:34:36.141Z,6.90
2022-11-28T15:37:08.777Z,6.90
2022-11-28T15:39:39.347Z,6.90
2022-11-28T15:42:26.347Z,6.80
2022-11-28T15:44:56.657Z,6.90
2022-11-28T15:47:23.557Z,6.90
2022-11-28T15:50:13.425Z,6.90
2022-11-28T15:52:42.172Z,6.90
2022-11-28T15:55:14.768Z,6.80
2022-11-28T15:57:43.551Z,6.80
2022-11-28T16:00:13.747Z,6.80
2022-11-28T16:02:40.925Z,6.80
2022-11-28T16:05:09.146Z,6.80
2022-11-28T16:07:40.693Z,6.80
2022-11-28T16:10:17.156Z,6.80
2022-11-28T16:12:44.210Z,6.70
2022-11-28T16:15:20.560Z,6.70
2022-11-28T16:17:47.203Z,6.70
2022-11-28T16:20:19.957Z,6.70
2022-11-28T16:22:46.522Z,6.80
2022-11-28T16:25:26.272Z,6.70
2022-11-28T16:27:53.390Z,6.70
2022-11-28T16:30:22.795Z,6.70
2022-11-28T16:32:52.683Z,6.70
2022-11-28T16:35:28.638Z,6.70
2022-11-28T16:38:05.894Z,6.70
2022-11-28T16:40:32.520Z,6.70
2022-11-28T16:42:59.538Z,6.80
2022-11-28T16:45:28.125Z,6.80
2022-11-28T16:48:02.898Z,6.80
2022-11-28T16:50:31.254Z,6.80
2022-11-28T16:53:00.272Z,6.90
2022-11-28T16:55:29.023Z,6.90
2022-11-28T16:58:07.172Z,6.80
2022-11-28T17:00:34.483Z,6.80
2022-11-28T17:03:01.147Z,6.80
2022-11-28T17:05:29.879Z,6.90
2022-11-28T17:07:56.616Z,6.90
2022-11-28T17:10:25.591Z,6.80
2022-11-28T17:12:52.201Z,6.90
2022-11-28T17:15:20.161Z,6.90
2022-11-28T17:17:46.730Z,6.80
2022-11-28T17:20:13.727Z,6.80
2022-11-28T17:22:42.332Z,6.70
2022-11-28T17:25:16.666Z,6.80
2022-11-28T17:27:43.392Z,6.70
2022-11-28T17:30:15.638Z,6.80
2022-11-28T17:32:42.154Z,6.80
2022-11-28T17:35:20.046Z,6.80
2022-11-28T17:37:46.588Z,6.90
2022-11-28T17:40:31.759Z,6.90
2022-11-28T17:42:58.626Z,6.90
2022-11-28T17:45:25.771Z,6.90
2022-11-28T17:47:54.549Z,6.90
2022-11-28T17:50:21.159Z,6.90
2022-11-28T17:52:50.135Z,6.90
2022-11-28T17:55:20.550Z,7.00
2022-11-28T17:57:47.367Z,7.00
2022-11-28T18:00:14.637Z,7.00
2022-11-28T18:02:41.511Z,7.00
2022-11-28T18:05:10.826Z,7.10
2022-11-28T18:07:39.670Z,7.10
2022-11-28T18:10:06.615Z,7.10
2022-11-28T18:12:33.540Z,7.10
2022-11-28T18:15:00.904Z,7.10
2022-11-28T18:17:27.445Z,7.10
2022-11-28T18:19:57.468Z,7.20
2022-11-28T18:22:24.577Z,7.20
2022-11-28T18:24:51.131Z,7.20
2022-11-28T18:27:17.702Z,7.20
2022-11-28T18:29:44.633Z,7.20
2022-11-28T18:32:11.664Z,7.10
2022-11-28T18:34:38.217Z,7.10
2022-11-28T18:37:05.254Z,7.10
2022-11-28T18:39:33.055Z,7.10
2022-11-28T18:42:00.039Z,7.20
2022-11-28T18:44:26.725Z,7.20
2022-11-28T18:46:53.372Z,7.20
2022-11-28T18:49:20.292Z,7.20
2022-11-28T18:51:46.995Z,7.20
2022-11-28T18:54:19.246Z,7.20
2022-11-28T18:56:47.609Z,7.20
2022-11-28T18:59:16.363Z,7.20
2022-11-28T19:01:42.964Z,7.20
2022-11-28T19:04:10.985Z,7.20
2022-11-28T19:06:40.613Z,7.30
2022-11-28T19:09:09.305Z,7.30
2022-11-28T19:11:35.894Z,7.30
2022-11-28T19:14:02.446Z,7.30
2022-11-28T19:16:30.481Z,7.30
2022-11-28T19:18:57.616Z,7.30
2022-11-28T19:21:27.358Z,7.30
2022-11-28T19:23:54.670Z,7.30
2022-11-28T19:26:22.317Z,7.20
2022-11-28T19:28:50.997Z,7.20
2022-11-28T19:31:21.332Z,7.10
2022-11-28T19:34:00.585Z,7.10
2022-11-28T19:36:28.217Z,7.10
2022-11-28T19:38:54.829Z,7.00
2022-11-28T19:41:22.085Z,6.90
2022-11-28T19:43:48.733Z,6.90
2022-11-28T19:46:17.749Z,6.90
2022-11-28T19:48:44.507Z,6.90
2022-11-28T19:51:12.211Z,6.90
2022-11-28T19:53:39.991Z,6.90
2022-11-28T19:56:08.184Z,7.00
2022-11-28T19:58:37.336Z,7.00
2022-11-28T20:01:07.887Z,7.00
2022-11-28T20:03:35.174Z,7.00
2022-11-28T20:06:03.898Z,7.10
2022-11-28T20:08:30.410Z,7.10
2022-11-28T20:10:56.961Z,7.10
2022-11-28T20:13:23.535Z,7.00
2022-11-28T20:15:50.080Z,7.10
2022-11-28T20:18:18.930Z,7.10
2022-11-28T20:20:47.648Z,7.00
2022-11-28T20:23:14.195Z,7.00
2022-11-28T20:25:40.783Z,7.00
2022-11-28T20:28:07.293Z,7.00
2022-11-28T20:30:37.743Z,7.00
2022-11-28T20:33:04.314Z,7.10
2022-11-28T20:35:31.018Z,7.00
2022-11-28T20:37:59.684Z,7.00
2022-11-28T20:40:26.249Z,7.00
2022-11-28T20:42:55.217Z,7.00
2022-11-28T20:45:21.804Z,7.00
2022-11-28T20:47:49.983Z,7.10
2022-11-28T20:50:16.860Z,7.10
2022-11-28T20:52:43.453Z,7.10
2022-11-28T20:55:10.197Z,7.10
2022-11-28T20:57:36.830Z,7.10
2022-11-28T21:00:03.742Z,7.10
2022-11-28T21:02:30.377Z,7.10
2022-11-28T21:04:57.650Z,7.00
2022-11-28T21:07:26.611Z,7.10
2022-11-28T21:09:59.854Z,7.10
2022-11-28T21:12:26.395Z,7.10
2022-11-28T21:14:54.521Z,7.10
2022-11-28T21:17:23.799Z,7.10
2022-11-28T21:19:50.758Z,7.00
2022-11-28T21:22:17.336Z,7.00
2022-11-28T21:24:49.335Z,7.00
2022-11-28T21:27:17.331Z,7.00
2022-11-28T21:29:44.130Z,7.00
2022-11-28T21:32:13.508Z,7.00
2022-11-28T21:34:45.135Z,7.00
2022-11-28T21:37:11.713Z,7.00
2022-11-28T21:39:40.723Z,7.00
2022-11-28T21:42:07.289Z,7.00
2022-11-28T21:44:33.850Z,7.00
2022-11-28T21:47:00.401Z,6.90
2022-11-28T21:49:26.939Z,6.90
2022-11-28T21:51:53.466Z,6.90
2022-11-28T21:54:22.223Z,6.80
2022-11-28T21:56:48.792Z,6.80
2022-11-28T21:59:15.417Z,6.80
2022-11-28T22:01:42.062Z,6.80
2022-11-28T22:04:09.721Z,6.80
2022-11-28T22:06:36.476Z,6.80
2022-11-28T22:09:09.014Z,6.80
2022-11-28T22:11:36.387Z,6.80
2022-11-28T22:14:02.945Z,6.90
2022-11-28T22:16:29.678Z,6.90
2022-11-28T22:18:58.169Z,6.90
2022-11-28T22:21:51.290Z,6.90
2022-11-28T22:24:14.666Z,7.00
2022-11-28T22:26:43.723Z,7.00
2022-11-28T22:29:10.351Z,7.00
2022-11-28T22:31:37.018Z,7.00
2022-11-28T22:34:03.611Z,7.10
2022-11-28T22:36:31.980Z,7.10
2022-11-28T22:38:58.934Z,7.10
2022-11-28T22:41:29.855Z,7.10
2022-11-28T22:44:00.583Z,7.20
2022-11-28T22:46:30.162Z,7.20
2022-11-28T22:48:58.486Z,7.20
2022-11-28T22:51:25.971Z,7.20
2022-11-28T22:53:56.201Z,7.20
2022-11-28T22:56:23.104Z,7.20
2022-11-28T22:58:52.120Z,7.20
2022-11-28T23:01:21.744Z,7.20
2022-11-28T23:03:51.162Z,7.20
2022-11-28T23:06:19.136Z,7.20
2022-11-28T23:08:46.322Z,7.20
2022-11-28T23:11:14.788Z,7.20
2022-11-28T23:13:41.717Z,7.30
2022-11-28T23:16:09.343Z,7.20
2022-11-28T23:18:36.016Z,7.20
2022-11-28T23:21:05.315Z,7.20
2022-11-28T23:23:32.715Z,7.30
2022-11-28T23:26:06.452Z,7.30
2022-11-28T23:28:33.678Z,7.30
2022-11-28T23:31:04.338Z,7.30
2022-11-28T23:33:35.588Z,7.30
2022-11-28T23:36:19.897Z,7.30
2022-11-28T23:38:47.165Z,7.30
2022-11-28T23:41:13.733Z,7.30
2022-11-28T23:43:40.374Z,7.40
2022-11-28T23:46:07.850Z,7.40
2022-11-28T23:48:34.426Z,7.40
2022-11-28T23:51:00.985Z,7.40
2022-11-28T23:53:27.659Z,7.40
2022-11-28T23:55:54.237Z,7.30
2022-11-28T23:58:20.799Z,7.20
